sensor_id;sensor_type;location;lat;lon;timestamp;temperature;humidity
65058;HTU21D;51644;51.068;5.860;2023-12-29T00:00:38;11.70;74.09
65058;HTU21D;51644;51.068;5.860;2023-12-29T00:01:36;11.70;74.38
65058;HTU21D;51644;51.068;5.860;2023-12-29T00:02:35;11.63;74.25
65058;HTU21D;51644;51.068;5.860;2023-12-29T00:03:35;11.60;74.45
65058;HTU21D;51644;51.068;5.860;2023-12-29T00:04:33;11.63;74.56
65058;HTU21D;51644;51.068;5.860;2023-12-29T00:05:32;11.67;74.58
65058;HTU21D;51644;51.068;5.860;2023-12-29T00:06:30;11.63;74.60
65058;HTU21D;51644;51.068;5.860;2023-12-29T00:07:29;11.61;74.60
65058;HTU21D;51644;51.068;5.860;2023-12-29T00:08:28;11.58;74.62
65058;HTU21D;51644;51.068;5.860;2023-12-29T00:09:26;11.70;74.37
65058;HTU21D;51644;51.068;5.860;2023-12-29T00:10:25;11.71;74.31
65058;HTU21D;51644;51.068;5.860;2023-12-29T00:11:26;11.71;74.31
65058;HTU21D;51644;51.068;5.860;2023-12-29T00:12:24;11.74;74.13
65058;HTU21D;51644;51.068;5.860;2023-12-29T00:13:23;11.67;74.38
65058;HTU21D;51644;51.068;5.860;2023-12-29T00:14:22;11.71;74.38
65058;HTU21D;51644;51.068;5.860;2023-12-29T00:15:21;11.71;74.46
65058;HTU21D;51644;51.068;5.860;2023-12-29T00:16:20;11.71;74.51
65058;HTU21D;51644;51.068;5.860;2023-12-29T00:17:18;11.74;74.26
65058;HTU21D;51644;51.068;5.860;2023-12-29T00:18:17;11.70;74.58
65058;HTU21D;51644;51.068;5.860;2023-12-29T00:19:16;11.68;74.37
65058;HTU21D;51644;51.068;5.860;2023-12-29T00:20:14;11.62;74.73
65058;HTU21D;51644;51.068;5.860;2023-12-29T00:21:13;11.60;74.75
65058;HTU21D;51644;51.068;5.860;2023-12-29T00:22:11;11.72;74.56
65058;HTU21D;51644;51.068;5.860;2023-12-29T00:23:10;11.68;74.37
65058;HTU21D;51644;51.068;5.860;2023-12-29T00:24:09;11.68;74.55
65058;HTU21D;51644;51.068;5.860;2023-12-29T00:25:07;11.69;74.64
65058;HTU21D;51644;51.068;5.860;2023-12-29T00:26:07;11.69;74.48
65058;HTU21D;51644;51.068;5.860;2023-12-29T00:27:08;11.67;74.67
65058;HTU21D;51644;51.068;5.860;2023-12-29T00:28:06;11.69;74.41
65058;HTU21D;51644;51.068;5.860;2023-12-29T00:29:05;11.59;74.61
65058;HTU21D;51644;51.068;5.860;2023-12-29T00:30:08;11.57;74.99
65058;HTU21D;51644;51.068;5.860;2023-12-29T00:31:07;11.58;75.00
65058;HTU21D;51644;51.068;5.860;2023-12-29T00:32:06;11.59;74.92
65058;HTU21D;51644;51.068;5.860;2023-12-29T00:33:04;11.55;74.94
65058;HTU21D;51644;51.068;5.860;2023-12-29T00:34:03;11.53;75.05
65058;HTU21D;51644;51.068;5.860;2023-12-29T00:35:02;11.59;74.90
65058;HTU21D;51644;51.068;5.860;2023-12-29T00:36:00;11.60;74.98
65058;HTU21D;51644;51.068;5.860;2023-12-29T00:36:59;11.57;75.10
65058;HTU21D;51644;51.068;5.860;2023-12-29T00:37:58;11.55;75.08
65058;HTU21D;51644;51.068;5.860;2023-12-29T00:38:57;11.52;75.21
65058;HTU21D;51644;51.068;5.860;2023-12-29T00:39:55;11.52;74.92
65058;HTU21D;51644;51.068;5.860;2023-12-29T00:40:55;11.53;75.17
65058;HTU21D;51644;51.068;5.860;2023-12-29T00:41:54;11.54;75.18
65058;HTU21D;51644;51.068;5.860;2023-12-29T00:42:53;11.61;74.84
65058;HTU21D;51644;51.068;5.860;2023-12-29T00:43:52;11.61;74.81
65058;HTU21D;51644;51.068;5.860;2023-12-29T00:44:50;11.69;74.60
65058;HTU21D;51644;51.068;5.860;2023-12-29T00:45:50;11.62;74.76
65058;HTU21D;51644;51.068;5.860;2023-12-29T00:46:49;11.62;74.73
65058;HTU21D;51644;51.068;5.860;2023-12-29T00:47:48;11.62;74.69
65058;HTU21D;51644;51.068;5.860;2023-12-29T00:48:46;11.67;74.68
65058;HTU21D;51644;51.068;5.860;2023-12-29T00:49:45;11.72;74.57
65058;HTU21D;51644;51.068;5.860;2023-12-29T00:50:43;11.63;74.76
65058;HTU21D;51644;51.068;5.860;2023-12-29T00:51:43;11.62;74.89
65058;HTU21D;51644;51.068;5.860;2023-12-29T00:52:42;11.64;74.84
65058;HTU21D;51644;51.068;5.860;2023-12-29T00:53:40;11.60;74.98
65058;HTU21D;51644;51.068;5.860;2023-12-29T00:54:40;11.58;75.13
65058;HTU21D;51644;51.068;5.860;2023-12-29T00:55:40;11.59;75.13
65058;HTU21D;51644;51.068;5.860;2023-12-29T00:56:40;11.54;75.30
65058;HTU21D;51644;51.068;5.860;2023-12-29T00:57:39;11.66;74.87
65058;HTU21D;51644;51.068;5.860;2023-12-29T00:58:40;11.61;75.00
65058;HTU21D;51644;51.068;5.860;2023-12-29T00:59:39;11.55;75.18
65058;HTU21D;51644;51.068;5.860;2023-12-29T01:00:42;11.51;75.33
65058;HTU21D;51644;51.068;5.860;2023-12-29T01:01:40;11.57;75.34
65058;HTU21D;51644;51.068;5.860;2023-12-29T01:02:39;11.63;75.09
65058;HTU21D;51644;51.068;5.860;2023-12-29T01:03:38;11.56;75.22
65058;HTU21D;51644;51.068;5.860;2023-12-29T01:04:39;11.53;75.54
65058;HTU21D;51644;51.068;5.860;2023-12-29T01:05:38;11.49;75.44
65058;HTU21D;51644;51.068;5.860;2023-12-29T01:06:38;11.55;75.40
65058;HTU21D;51644;51.068;5.860;2023-12-29T01:07:36;11.52;75.49
65058;HTU21D;51644;51.068;5.860;2023-12-29T01:08:41;11.45;75.69
65058;HTU21D;51644;51.068;5.860;2023-12-29T01:09:39;11.48;75.63
65058;HTU21D;51644;51.068;5.860;2023-12-29T01:10:38;11.51;75.77
65058;HTU21D;51644;51.068;5.860;2023-12-29T01:11:37;11.52;75.46
65058;HTU21D;51644;51.068;5.860;2023-12-29T01:12:35;11.52;75.47
65058;HTU21D;51644;51.068;5.860;2023-12-29T01:13:34;11.55;75.55
65058;HTU21D;51644;51.068;5.860;2023-12-29T01:14:33;11.52;75.58
65058;HTU21D;51644;51.068;5.860;2023-12-29T01:15:31;11.55;75.54
65058;HTU21D;51644;51.068;5.860;2023-12-29T01:16:30;11.57;75.43
65058;HTU21D;51644;51.068;5.860;2023-12-29T01:17:29;11.58;75.41
65058;HTU21D;51644;51.068;5.860;2023-12-29T01:18:27;11.47;75.67
65058;HTU21D;51644;51.068;5.860;2023-12-29T01:19:26;11.43;75.94
65058;HTU21D;51644;51.068;5.860;2023-12-29T01:20:27;11.48;75.79
65058;HTU21D;51644;51.068;5.860;2023-12-29T01:21:26;11.53;75.73
65058;HTU21D;51644;51.068;5.860;2023-12-29T01:22:25;11.47;75.92
65058;HTU21D;51644;51.068;5.860;2023-12-29T01:23:23;11.49;75.83
65058;HTU21D;51644;51.068;5.860;2023-12-29T01:24:22;11.51;75.80
65058;HTU21D;51644;51.068;5.860;2023-12-29T01:25:20;11.55;75.52
65058;HTU21D;51644;51.068;5.860;2023-12-29T01:26:19;11.48;75.72
65058;HTU21D;51644;51.068;5.860;2023-12-29T01:27:17;11.46;75.93
65058;HTU21D;51644;51.068;5.860;2023-12-29T01:28:16;11.47;75.99
65058;HTU21D;51644;51.068;5.860;2023-12-29T01:29:15;11.51;75.83
65058;HTU21D;51644;51.068;5.860;2023-12-29T01:30:14;11.52;75.89
65058;HTU21D;51644;51.068;5.860;2023-12-29T01:31:12;11.56;75.79
65058;HTU21D;51644;51.068;5.860;2023-12-29T01:32:12;11.58;75.89
65058;HTU21D;51644;51.068;5.860;2023-12-29T01:33:10;11.52;75.94
65058;HTU21D;51644;51.068;5.860;2023-12-29T01:34:09;11.52;76.03
65058;HTU21D;51644;51.068;5.860;2023-12-29T01:35:07;11.53;76.06
65058;HTU21D;51644;51.068;5.860;2023-12-29T01:36:06;11.53;75.99
65058;HTU21D;51644;51.068;5.860;2023-12-29T01:37:05;11.54;75.83
65058;HTU21D;51644;51.068;5.860;2023-12-29T01:38:04;11.57;75.93
65058;HTU21D;51644;51.068;5.860;2023-12-29T01:39:02;11.56;76.21
65058;HTU21D;51644;51.068;5.860;2023-12-29T01:40:01;11.57;76.21
65058;HTU21D;51644;51.068;5.860;2023-12-29T01:41:00;11.52;76.41
65058;HTU21D;51644;51.068;5.860;2023-12-29T01:41:58;11.46;76.83
65058;HTU21D;51644;51.068;5.860;2023-12-29T01:42:57;11.44;77.30
65058;HTU21D;51644;51.068;5.860;2023-12-29T01:44:59;11.46;76.82
65058;HTU21D;51644;51.068;5.860;2023-12-29T01:45:58;11.42;77.60
65058;HTU21D;51644;51.068;5.860;2023-12-29T01:47:00;11.31;78.17
65058;HTU21D;51644;51.068;5.860;2023-12-29T01:47:59;11.29;78.76
65058;HTU21D;51644;51.068;5.860;2023-12-29T01:48:58;11.26;78.93
65058;HTU21D;51644;51.068;5.860;2023-12-29T01:49:58;11.26;79.10
65058;HTU21D;51644;51.068;5.860;2023-12-29T01:50:58;11.23;79.04
65058;HTU21D;51644;51.068;5.860;2023-12-29T01:52:01;11.25;78.68
65058;HTU21D;51644;51.068;5.860;2023-12-29T01:53:03;11.27;78.24
65058;HTU21D;51644;51.068;5.860;2023-12-29T01:54:02;11.26;78.39
65058;HTU21D;51644;51.068;5.860;2023-12-29T01:55:00;11.22;79.27
65058;HTU21D;51644;51.068;5.860;2023-12-29T01:56:00;11.17;80.52
65058;HTU21D;51644;51.068;5.860;2023-12-29T01:57:00;11.20;80.56
65058;HTU21D;51644;51.068;5.860;2023-12-29T01:58:00;11.11;81.75
65058;HTU21D;51644;51.068;5.860;2023-12-29T01:59:00;11.07;81.28
65058;HTU21D;51644;51.068;5.860;2023-12-29T01:59:59;11.04;81.92
65058;HTU21D;51644;51.068;5.860;2023-12-29T02:01:00;11.12;81.39
65058;HTU21D;51644;51.068;5.860;2023-12-29T02:02:01;11.09;82.30
65058;HTU21D;51644;51.068;5.860;2023-12-29T02:03:00;11.11;82.14
65058;HTU21D;51644;51.068;5.860;2023-12-29T02:04:00;11.14;80.80
65058;HTU21D;51644;51.068;5.860;2023-12-29T02:04:59;11.11;81.42
65058;HTU21D;51644;51.068;5.860;2023-12-29T02:05:59;11.09;81.75
65058;HTU21D;51644;51.068;5.860;2023-12-29T02:06:57;11.01;81.99
65058;HTU21D;51644;51.068;5.860;2023-12-29T02:08:01;11.00;81.97
65058;HTU21D;51644;51.068;5.860;2023-12-29T02:09:02;11.02;81.51
65058;HTU21D;51644;51.068;5.860;2023-12-29T02:10:02;11.09;81.07
65058;HTU21D;51644;51.068;5.860;2023-12-29T02:11:01;11.10;81.20
65058;HTU21D;51644;51.068;5.860;2023-12-29T02:12:00;11.15;80.67
65058;HTU21D;51644;51.068;5.860;2023-12-29T02:12:59;11.19;80.25
65058;HTU21D;51644;51.068;5.860;2023-12-29T02:14:00;11.18;80.38
65058;HTU21D;51644;51.068;5.860;2023-12-29T02:15:02;11.22;80.24
65058;HTU21D;51644;51.068;5.860;2023-12-29T02:16:09;11.22;79.86
65058;HTU21D;51644;51.068;5.860;2023-12-29T02:17:22;11.30;79.46
65058;HTU21D;51644;51.068;5.860;2023-12-29T02:18:23;11.38;79.26
65058;HTU21D;51644;51.068;5.860;2023-12-29T02:19:42;11.44;78.94
65058;HTU21D;51644;51.068;5.860;2023-12-29T02:20:42;11.40;78.55
65058;HTU21D;51644;51.068;5.860;2023-12-29T02:21:42;11.41;78.60
65058;HTU21D;51644;51.068;5.860;2023-12-29T02:22:40;11.45;78.61
65058;HTU21D;51644;51.068;5.860;2023-12-29T02:23:39;11.46;78.24
65058;HTU21D;51644;51.068;5.860;2023-12-29T02:24:38;11.47;78.42
65058;HTU21D;51644;51.068;5.860;2023-12-29T02:25:37;11.54;77.80
65058;HTU21D;51644;51.068;5.860;2023-12-29T02:26:36;11.49;78.05
65058;HTU21D;51644;51.068;5.860;2023-12-29T02:27:55;11.55;77.81
65058;HTU21D;51644;51.068;5.860;2023-12-29T02:29:01;11.57;77.40
65058;HTU21D;51644;51.068;5.860;2023-12-29T02:30:29;11.68;77.46
65058;HTU21D;51644;51.068;5.860;2023-12-29T02:31:34;11.66;77.15
65058;HTU21D;51644;51.068;5.860;2023-12-29T02:32:36;11.61;77.33
65058;HTU21D;51644;51.068;5.860;2023-12-29T02:33:40;11.61;77.21
65058;HTU21D;51644;51.068;5.860;2023-12-29T02:34:43;11.66;77.25
65058;HTU21D;51644;51.068;5.860;2023-12-29T02:35:44;11.58;76.89
65058;HTU21D;51644;51.068;5.860;2023-12-29T02:36:46;11.62;76.89
65058;HTU21D;51644;51.068;5.860;2023-12-29T02:37:47;11.62;77.18
65058;HTU21D;51644;51.068;5.860;2023-12-29T02:38:46;11.68;77.05
65058;HTU21D;51644;51.068;5.860;2023-12-29T02:39:45;11.63;76.74
65058;HTU21D;51644;51.068;5.860;2023-12-29T02:40:43;11.57;76.98
65058;HTU21D;51644;51.068;5.860;2023-12-29T02:41:42;11.53;77.18
65058;HTU21D;51644;51.068;5.860;2023-12-29T02:42:45;11.59;76.91
65058;HTU21D;51644;51.068;5.860;2023-12-29T02:43:44;11.64;76.72
65058;HTU21D;51644;51.068;5.860;2023-12-29T02:44:43;11.63;76.92
65058;HTU21D;51644;51.068;5.860;2023-12-29T02:45:47;11.68;76.78
65058;HTU21D;51644;51.068;5.860;2023-12-29T02:46:46;11.79;76.52
65058;HTU21D;51644;51.068;5.860;2023-12-29T02:47:45;11.83;76.34
65058;HTU21D;51644;51.068;5.860;2023-12-29T02:48:43;11.72;76.28
65058;HTU21D;51644;51.068;5.860;2023-12-29T02:49:42;11.71;76.09
65058;HTU21D;51644;51.068;5.860;2023-12-29T02:50:41;11.67;76.48
65058;HTU21D;51644;51.068;5.860;2023-12-29T02:51:39;11.70;76.22
65058;HTU21D;51644;51.068;5.860;2023-12-29T02:52:38;11.68;76.41
65058;HTU21D;51644;51.068;5.860;2023-12-29T02:53:37;11.70;76.27
65058;HTU21D;51644;51.068;5.860;2023-12-29T02:54:35;11.71;76.21
65058;HTU21D;51644;51.068;5.860;2023-12-29T02:55:34;11.81;76.05
65058;HTU21D;51644;51.068;5.860;2023-12-29T02:56:33;11.74;76.04
65058;HTU21D;51644;51.068;5.860;2023-12-29T02:57:33;11.71;76.07
65058;HTU21D;51644;51.068;5.860;2023-12-29T02:58:31;11.81;76.11
65058;HTU21D;51644;51.068;5.860;2023-12-29T02:59:30;11.73;75.96
65058;HTU21D;51644;51.068;5.860;2023-12-29T03:00:29;11.84;75.99
65058;HTU21D;51644;51.068;5.860;2023-12-29T03:01:27;11.87;75.63
65058;HTU21D;51644;51.068;5.860;2023-12-29T03:02:27;11.84;75.49
65058;HTU21D;51644;51.068;5.860;2023-12-29T03:03:26;11.93;75.60
65058;HTU21D;51644;51.068;5.860;2023-12-29T03:04:25;11.90;75.21
65058;HTU21D;51644;51.068;5.860;2023-12-29T03:05:23;11.98;75.49
65058;HTU21D;51644;51.068;5.860;2023-12-29T03:06:22;12.03;75.28
65058;HTU21D;51644;51.068;5.860;2023-12-29T03:07:20;12.05;75.07
65058;HTU21D;51644;51.068;5.860;2023-12-29T03:08:19;12.07;75.08
65058;HTU21D;51644;51.068;5.860;2023-12-29T03:09:17;12.07;75.02
65058;HTU21D;51644;51.068;5.860;2023-12-29T03:10:16;12.07;74.90
65058;HTU21D;51644;51.068;5.860;2023-12-29T03:11:15;12.06;74.61
65058;HTU21D;51644;51.068;5.860;2023-12-29T03:12:13;12.04;74.75
65058;HTU21D;51644;51.068;5.860;2023-12-29T03:13:12;12.06;74.93
65058;HTU21D;51644;51.068;5.860;2023-12-29T03:14:11;12.00;74.73
65058;HTU21D;51644;51.068;5.860;2023-12-29T03:15:09;12.01;75.01
65058;HTU21D;51644;51.068;5.860;2023-12-29T03:16:08;11.94;75.12
65058;HTU21D;51644;51.068;5.860;2023-12-29T03:17:07;11.98;74.81
65058;HTU21D;51644;51.068;5.860;2023-12-29T03:18:05;11.91;75.17
65058;HTU21D;51644;51.068;5.860;2023-12-29T03:19:04;11.85;75.10
65058;HTU21D;51644;51.068;5.860;2023-12-29T03:20:03;11.88;75.06
65058;HTU21D;51644;51.068;5.860;2023-12-29T03:21:06;11.84;75.27
65058;HTU21D;51644;51.068;5.860;2023-12-29T03:22:06;11.91;75.22
65058;HTU21D;51644;51.068;5.860;2023-12-29T03:23:04;11.88;74.77
65058;HTU21D;51644;51.068;5.860;2023-12-29T03:24:03;11.93;74.75
65058;HTU21D;51644;51.068;5.860;2023-12-29T03:25:02;11.91;74.64
65058;HTU21D;51644;51.068;5.860;2023-12-29T03:26:00;12.02;74.84
65058;HTU21D;51644;51.068;5.860;2023-12-29T03:26:59;12.02;74.61
65058;HTU21D;51644;51.068;5.860;2023-12-29T03:27:58;12.04;74.73
65058;HTU21D;51644;51.068;5.860;2023-12-29T03:28:57;12.01;74.51
65058;HTU21D;51644;51.068;5.860;2023-12-29T03:29:57;11.98;74.77
65058;HTU21D;51644;51.068;5.860;2023-12-29T03:30:55;12.00;74.85
65058;HTU21D;51644;51.068;5.860;2023-12-29T03:31:54;12.08;74.75
65058;HTU21D;51644;51.068;5.860;2023-12-29T03:32:52;12.00;74.59
65058;HTU21D;51644;51.068;5.860;2023-12-29T03:33:51;12.07;74.84
65058;HTU21D;51644;51.068;5.860;2023-12-29T03:34:49;12.08;74.35
65058;HTU21D;51644;51.068;5.860;2023-12-29T03:35:48;12.16;74.54
65058;HTU21D;51644;51.068;5.860;2023-12-29T03:36:46;12.17;74.44
65058;HTU21D;51644;51.068;5.860;2023-12-29T03:37:48;12.13;74.25
65058;HTU21D;51644;51.068;5.860;2023-12-29T03:38:49;12.05;75.17
65058;HTU21D;51644;51.068;5.860;2023-12-29T03:39:48;12.10;75.33
65058;HTU21D;51644;51.068;5.860;2023-12-29T03:40:47;12.12;75.41
65058;HTU21D;51644;51.068;5.860;2023-12-29T03:41:45;12.01;75.96
65058;HTU21D;51644;51.068;5.860;2023-12-29T03:42:44;11.87;77.27
65058;HTU21D;51644;51.068;5.860;2023-12-29T03:43:43;11.81;77.16
65058;HTU21D;51644;51.068;5.860;2023-12-29T03:44:41;11.88;76.34
65058;HTU21D;51644;51.068;5.860;2023-12-29T03:45:40;11.77;76.84
65058;HTU21D;51644;51.068;5.860;2023-12-29T03:46:40;11.84;76.41
65058;HTU21D;51644;51.068;5.860;2023-12-29T03:47:38;11.87;76.13
65058;HTU21D;51644;51.068;5.860;2023-12-29T03:48:40;11.82;76.18
65058;HTU21D;51644;51.068;5.860;2023-12-29T03:49:39;11.79;75.92
65058;HTU21D;51644;51.068;5.860;2023-12-29T03:50:37;11.76;75.95
65058;HTU21D;51644;51.068;5.860;2023-12-29T03:51:39;11.89;75.83
65058;HTU21D;51644;51.068;5.860;2023-12-29T03:52:38;11.97;75.49
65058;HTU21D;51644;51.068;5.860;2023-12-29T03:53:37;12.01;75.17
65058;HTU21D;51644;51.068;5.860;2023-12-29T03:54:35;11.93;75.34
65058;HTU21D;51644;51.068;5.860;2023-12-29T03:55:34;11.87;75.33
65058;HTU21D;51644;51.068;5.860;2023-12-29T03:56:33;11.84;75.50
65058;HTU21D;51644;51.068;5.860;2023-12-29T03:57:31;11.93;75.24
65058;HTU21D;51644;51.068;5.860;2023-12-29T03:58:30;11.86;75.20
65058;HTU21D;51644;51.068;5.860;2023-12-29T03:59:28;11.82;75.51
65058;HTU21D;51644;51.068;5.860;2023-12-29T04:00:27;11.87;75.59
65058;HTU21D;51644;51.068;5.860;2023-12-29T04:01:25;11.85;75.29
65058;HTU21D;51644;51.068;5.860;2023-12-29T04:02:26;11.90;75.32
65058;HTU21D;51644;51.068;5.860;2023-12-29T04:03:24;11.79;75.47
65058;HTU21D;51644;51.068;5.860;2023-12-29T04:04:24;11.70;75.90
65058;HTU21D;51644;51.068;5.860;2023-12-29T04:05:22;11.69;76.05
65058;HTU21D;51644;51.068;5.860;2023-12-29T04:06:21;11.74;75.85
65058;HTU21D;51644;51.068;5.860;2023-12-29T04:07:20;11.67;76.09
65058;HTU21D;51644;51.068;5.860;2023-12-29T04:08:18;11.70;76.18
65058;HTU21D;51644;51.068;5.860;2023-12-29T04:09:17;11.70;76.24
65058;HTU21D;51644;51.068;5.860;2023-12-29T04:10:16;11.63;76.45
65058;HTU21D;51644;51.068;5.860;2023-12-29T04:11:14;11.63;76.20
65058;HTU21D;51644;51.068;5.860;2023-12-29T04:12:13;11.61;76.55
65058;HTU21D;51644;51.068;5.860;2023-12-29T04:13:11;11.66;76.38
65058;HTU21D;51644;51.068;5.860;2023-12-29T04:14:10;11.72;76.18
65058;HTU21D;51644;51.068;5.860;2023-12-29T04:15:11;11.69;76.24
65058;HTU21D;51644;51.068;5.860;2023-12-29T04:16:10;11.63;76.62
65058;HTU21D;51644;51.068;5.860;2023-12-29T04:17:08;11.70;76.34
65058;HTU21D;51644;51.068;5.860;2023-12-29T04:18:14;11.70;76.41
65058;HTU21D;51644;51.068;5.860;2023-12-29T04:19:13;11.71;76.39
65058;HTU21D;51644;51.068;5.860;2023-12-29T04:20:14;11.72;76.24
65058;HTU21D;51644;51.068;5.860;2023-12-29T04:21:15;11.66;76.50
65058;HTU21D;51644;51.068;5.860;2023-12-29T04:22:14;11.62;76.66
65058;HTU21D;51644;51.068;5.860;2023-12-29T04:23:12;11.62;76.70
65058;HTU21D;51644;51.068;5.860;2023-12-29T04:24:11;11.64;76.68
65058;HTU21D;51644;51.068;5.860;2023-12-29T04:25:10;11.70;76.39
65058;HTU21D;51644;51.068;5.860;2023-12-29T04:26:10;11.67;76.37
65058;HTU21D;51644;51.068;5.860;2023-12-29T04:27:10;11.58;76.69
65058;HTU21D;51644;51.068;5.860;2023-12-29T04:28:09;11.58;76.87
65058;HTU21D;51644;51.068;5.860;2023-12-29T04:29:08;11.58;76.89
65058;HTU21D;51644;51.068;5.860;2023-12-29T04:30:07;11.62;76.57
65058;HTU21D;51644;51.068;5.860;2023-12-29T04:31:08;11.60;76.92
65058;HTU21D;51644;51.068;5.860;2023-12-29T04:32:07;11.52;77.15
65058;HTU21D;51644;51.068;5.860;2023-12-29T04:33:06;11.51;77.29
65058;HTU21D;51644;51.068;5.860;2023-12-29T04:34:05;11.43;77.66
65058;HTU21D;51644;51.068;5.860;2023-12-29T04:35:06;11.41;77.89
65058;HTU21D;51644;51.068;5.860;2023-12-29T04:36:05;11.43;77.77
65058;HTU21D;51644;51.068;5.860;2023-12-29T04:37:04;11.41;77.82
65058;HTU21D;51644;51.068;5.860;2023-12-29T04:38:03;11.44;77.67
65058;HTU21D;51644;51.068;5.860;2023-12-29T04:39:02;11.40;77.81
65058;HTU21D;51644;51.068;5.860;2023-12-29T04:40:00;11.45;77.51
65058;HTU21D;51644;51.068;5.860;2023-12-29T04:40:59;11.41;77.69
65058;HTU21D;51644;51.068;5.860;2023-12-29T04:41:58;11.40;77.79
65058;HTU21D;51644;51.068;5.860;2023-12-29T04:42:56;11.41;77.68
65058;HTU21D;51644;51.068;5.860;2023-12-29T04:43:55;11.38;77.83
65058;HTU21D;51644;51.068;5.860;2023-12-29T04:44:53;11.34;77.96
65058;HTU21D;51644;51.068;5.860;2023-12-29T04:45:52;11.33;77.87
65058;HTU21D;51644;51.068;5.860;2023-12-29T04:46:50;11.32;77.95
65058;HTU21D;51644;51.068;5.860;2023-12-29T04:47:49;11.33;77.87
65058;HTU21D;51644;51.068;5.860;2023-12-29T04:48:47;11.37;77.66
65058;HTU21D;51644;51.068;5.860;2023-12-29T04:49:46;11.36;77.71
65058;HTU21D;51644;51.068;5.860;2023-12-29T04:50:45;11.33;77.83
65058;HTU21D;51644;51.068;5.860;2023-12-29T04:51:43;11.32;78.11
65058;HTU21D;51644;51.068;5.860;2023-12-29T04:52:42;11.36;77.97
65058;HTU21D;51644;51.068;5.860;2023-12-29T04:53:40;11.28;78.17
65058;HTU21D;51644;51.068;5.860;2023-12-29T04:54:39;11.26;78.01
65058;HTU21D;51644;51.068;5.860;2023-12-29T04:55:37;11.23;78.27
65058;HTU21D;51644;51.068;5.860;2023-12-29T04:56:36;11.30;78.21
65058;HTU21D;51644;51.068;5.860;2023-12-29T04:57:34;11.33;77.94
65058;HTU21D;51644;51.068;5.860;2023-12-29T04:58:33;11.31;77.98
65058;HTU21D;51644;51.068;5.860;2023-12-29T04:59:31;11.36;77.82
65058;HTU21D;51644;51.068;5.860;2023-12-29T05:00:30;11.38;77.69
65058;HTU21D;51644;51.068;5.860;2023-12-29T05:01:29;11.37;77.73
65058;HTU21D;51644;51.068;5.860;2023-12-29T05:02:27;11.26;78.10
65058;HTU21D;51644;51.068;5.860;2023-12-29T05:03:29;11.23;78.37
65058;HTU21D;51644;51.068;5.860;2023-12-29T05:04:28;11.23;78.32
65058;HTU21D;51644;51.068;5.860;2023-12-29T05:05:27;11.26;78.27
65058;HTU21D;51644;51.068;5.860;2023-12-29T05:06:25;11.27;78.20
65058;HTU21D;51644;51.068;5.860;2023-12-29T05:07:24;11.25;78.34
65058;HTU21D;51644;51.068;5.860;2023-12-29T05:08:23;11.20;78.53
65058;HTU21D;51644;51.068;5.860;2023-12-29T05:09:21;11.20;78.43
65058;HTU21D;51644;51.068;5.860;2023-12-29T05:10:20;11.19;78.40
65058;HTU21D;51644;51.068;5.860;2023-12-29T05:11:22;11.20;78.40
65058;HTU21D;51644;51.068;5.860;2023-12-29T05:12:23;11.18;78.53
65058;HTU21D;51644;51.068;5.860;2023-12-29T05:13:21;11.20;78.48
65058;HTU21D;51644;51.068;5.860;2023-12-29T05:14:20;11.31;78.04
65058;HTU21D;51644;51.068;5.860;2023-12-29T05:15:18;11.23;78.26
65058;HTU21D;51644;51.068;5.860;2023-12-29T05:16:17;11.18;78.45
65058;HTU21D;51644;51.068;5.860;2023-12-29T05:17:16;11.18;78.30
65058;HTU21D;51644;51.068;5.860;2023-12-29T05:18:17;11.22;78.35
65058;HTU21D;51644;51.068;5.860;2023-12-29T05:19:15;11.23;78.50
65058;HTU21D;51644;51.068;5.860;2023-12-29T05:20:14;11.20;78.49
65058;HTU21D;51644;51.068;5.860;2023-12-29T05:21:16;11.26;78.27
65058;HTU21D;51644;51.068;5.860;2023-12-29T05:22:15;11.28;78.11
65058;HTU21D;51644;51.068;5.860;2023-12-29T05:23:15;11.25;78.18
65058;HTU21D;51644;51.068;5.860;2023-12-29T05:24:14;11.26;78.19
65058;HTU21D;51644;51.068;5.860;2023-12-29T05:25:13;11.23;78.25
65058;HTU21D;51644;51.068;5.860;2023-12-29T05:26:33;11.23;78.33
65058;HTU21D;51644;51.068;5.860;2023-12-29T05:27:38;11.29;78.03
65058;HTU21D;51644;51.068;5.860;2023-12-29T05:28:40;11.27;78.08
65058;HTU21D;51644;51.068;5.860;2023-12-29T05:29:38;11.27;78.24
65058;HTU21D;51644;51.068;5.860;2023-12-29T05:30:37;11.32;77.72
65058;HTU21D;51644;51.068;5.860;2023-12-29T05:31:36;11.30;77.88
65058;HTU21D;51644;51.068;5.860;2023-12-29T05:32:35;11.30;77.95
65058;HTU21D;51644;51.068;5.860;2023-12-29T05:33:34;11.27;78.11
65058;HTU21D;51644;51.068;5.860;2023-12-29T05:34:32;11.25;78.21
65058;HTU21D;51644;51.068;5.860;2023-12-29T05:35:31;11.25;78.23
65058;HTU21D;51644;51.068;5.860;2023-12-29T05:36:29;11.24;78.18
65058;HTU21D;51644;51.068;5.860;2023-12-29T05:37:28;11.26;78.16
65058;HTU21D;51644;51.068;5.860;2023-12-29T05:38:27;11.27;78.00
65058;HTU21D;51644;51.068;5.860;2023-12-29T05:39:25;11.22;78.14
65058;HTU21D;51644;51.068;5.860;2023-12-29T05:40:24;11.18;78.21
65058;HTU21D;51644;51.068;5.860;2023-12-29T05:41:23;11.20;78.27
65058;HTU21D;51644;51.068;5.860;2023-12-29T05:42:21;11.27;77.96
65058;HTU21D;51644;51.068;5.860;2023-12-29T05:43:20;11.15;78.43
65058;HTU21D;51644;51.068;5.860;2023-12-29T05:44:21;11.19;78.32
65058;HTU21D;51644;51.068;5.860;2023-12-29T05:45:20;11.19;78.28
65058;HTU21D;51644;51.068;5.860;2023-12-29T05:46:19;11.15;78.48
65058;HTU21D;51644;51.068;5.860;2023-12-29T05:47:20;11.16;78.53
65058;HTU21D;51644;51.068;5.860;2023-12-29T05:48:19;11.15;78.72
65058;HTU21D;51644;51.068;5.860;2023-12-29T05:49:17;11.20;78.37
65058;HTU21D;51644;51.068;5.860;2023-12-29T05:50:16;11.15;78.52
65058;HTU21D;51644;51.068;5.860;2023-12-29T05:51:15;11.18;78.53
65058;HTU21D;51644;51.068;5.860;2023-12-29T05:52:13;11.18;78.62
65058;HTU21D;51644;51.068;5.860;2023-12-29T05:53:12;11.17;78.76
65058;HTU21D;51644;51.068;5.860;2023-12-29T05:54:12;11.19;78.64
65058;HTU21D;51644;51.068;5.860;2023-12-29T05:55:10;11.15;78.85
65058;HTU21D;51644;51.068;5.860;2023-12-29T05:56:12;11.19;78.77
65058;HTU21D;51644;51.068;5.860;2023-12-29T05:57:11;11.23;78.67
65058;HTU21D;51644;51.068;5.860;2023-12-29T05:58:10;11.23;78.62
65058;HTU21D;51644;51.068;5.860;2023-12-29T05:59:09;11.20;78.72
65058;HTU21D;51644;51.068;5.860;2023-12-29T06:00:08;11.22;78.67
65058;HTU21D;51644;51.068;5.860;2023-12-29T06:01:12;11.28;78.38
65058;HTU21D;51644;51.068;5.860;2023-12-29T06:02:11;11.24;78.66
65058;HTU21D;51644;51.068;5.860;2023-12-29T06:03:09;11.22;78.57
65058;HTU21D;51644;51.068;5.860;2023-12-29T06:04:08;11.18;78.73
65058;HTU21D;51644;51.068;5.860;2023-12-29T06:05:12;11.23;78.77
65058;HTU21D;51644;51.068;5.860;2023-12-29T06:06:11;11.24;78.63
65058;HTU21D;51644;51.068;5.860;2023-12-29T06:07:10;11.19;78.71
65058;HTU21D;51644;51.068;5.860;2023-12-29T06:08:09;11.19;78.86
65058;HTU21D;51644;51.068;5.860;2023-12-29T06:09:09;11.26;78.60
65058;HTU21D;51644;51.068;5.860;2023-12-29T06:10:08;11.30;78.43
65058;HTU21D;51644;51.068;5.860;2023-12-29T06:11:07;11.24;78.63